createdAt,value
2023-03-19T00:03:29.767Z,95.7
2023-03-19T00:14:36.813Z,97.2
2023-03-19T00:19:33.353Z,94.6
2023-03-19T00:24:29.951Z,91.8
2023-03-19T00:29:26.514Z,95.9
2023-03-19T00:35:37.110Z,98.3
2023-03-19T00:40:33.619Z,97
2023-03-19T00:45:30.185Z,99.4
2023-03-19T00:50:26.691Z,99.9
2023-03-19T00:56:37.359Z,99.8
2023-03-19T01:01:34.049Z,100
2023-03-19T01:06:30.397Z,100
2023-03-19T01:11:26.951Z,100
2023-03-19T01:17:37.636Z,100
2023-03-19T01:22:35.883Z,100
2023-03-19T01:27:30.647Z,100
2023-03-19T01:32:27.223Z,100
2023-03-19T01:38:37.893Z,100
2023-03-19T01:43:34.412Z,100
2023-03-19T01:48:30.977Z,100
2023-03-19T01:53:27.464Z,100
2023-03-19T01:58:25.916Z,100
2023-03-19T02:04:34.835Z,100
2023-03-19T02:09:31.193Z,100
2023-03-19T02:14:27.744Z,100
2023-03-19T02:20:38.470Z,100
2023-03-19T02:25:35.029Z,100
2023-03-19T02:30:31.661Z,100
2023-03-19T02:35:28.015Z,100
2023-03-19T02:40:24.591Z,100
2023-03-19T02:46:35.332Z,100
2023-03-19T02:51:31.759Z,100
2023-03-19T02:56:28.381Z,100
2023-03-19T03:01:24.812Z,100
2023-03-19T03:07:35.516Z,100
2023-03-19T03:12:32.057Z,100
2023-03-19T03:17:28.631Z,100
2023-03-19T03:22:25.163Z,100
2023-03-19T03:28:35.790Z,100
2023-03-19T03:33:32.284Z,100
2023-03-19T03:38:28.835Z,100
2023-03-19T03:43:25.375Z,100
2023-03-19T03:49:36.064Z,100
2023-03-19T03:54:32.579Z,100
2023-03-19T03:59:29.219Z,100
2023-03-19T04:04:25.727Z,100
2023-03-19T04:10:36.341Z,100
2023-03-19T04:15:32.850Z,100
2023-03-19T04:20:29.381Z,100
2023-03-19T04:25:25.936Z,100
2023-03-19T04:31:36.586Z,100
2023-03-19T04:36:33.097Z,100
2023-03-19T04:41:29.664Z,100
2023-03-19T04:52:36.846Z,100
2023-03-19T04:57:33.370Z,100
2023-03-19T05:02:30.002Z,100
2023-03-19T05:07:26.489Z,100
2023-03-19T05:13:37.200Z,100
2023-03-19T05:18:33.647Z,100
2023-03-19T05:23:30.157Z,100
2023-03-19T05:28:26.694Z,100
2023-03-19T05:34:37.381Z,100
2023-03-19T05:39:33.910Z,100
2023-03-19T05:44:30.412Z,100
2023-03-19T05:49:26.986Z,100
2023-03-19T05:55:37.625Z,100
2023-03-19T06:00:34.399Z,100
2023-03-19T06:05:30.678Z,100
2023-03-19T06:10:27.218Z,100
2023-03-19T06:16:37.898Z,100
2023-03-19T06:21:34.485Z,100
2023-03-19T06:26:30.967Z,100
2023-03-19T06:31:27.650Z,100
2023-03-19T06:37:38.168Z,100
2023-03-19T06:42:34.872Z,100
2023-03-19T06:47:31.237Z,100
2023-03-19T06:52:27.818Z,100
2023-03-19T06:58:38.456Z,100
2023-03-19T07:03:35.074Z,100
2023-03-19T07:08:31.479Z,100
2023-03-19T07:13:28.057Z,100
2023-03-19T07:18:24.653Z,100
2023-03-19T07:24:35.250Z,100
2023-03-19T07:29:31.817Z,100
2023-03-19T07:34:28.320Z,100
2023-03-19T07:39:24.871Z,100
2023-03-19T07:45:35.679Z,100
2023-03-19T07:50:32.284Z,100
2023-03-19T07:51:46.171Z,99.1
2023-03-19T07:55:28.660Z,96.6
2023-03-19T08:00:25.115Z,98.7
2023-03-19T08:06:35.822Z,99.6
2023-03-19T08:11:32.289Z,100
2023-03-19T08:16:28.936Z,100
2023-03-19T08:21:25.416Z,100
2023-03-19T08:27:36.136Z,100
2023-03-19T08:32:32.622Z,100
2023-03-19T08:37:29.158Z,98.3
2023-03-19T08:42:25.669Z,100
2023-03-19T08:48:36.604Z,100
2023-03-19T08:53:32.856Z,100
2023-03-19T08:58:29.467Z,100
2023-03-19T09:03:25.913Z,100
2023-03-19T09:09:36.581Z,100
2023-03-19T09:14:33.113Z,100
2023-03-19T09:19:29.809Z,100
2023-03-19T09:29:22.807Z,100
2023-03-19T09:35:33.694Z,100
2023-03-19T09:40:29.893Z,100
2023-03-19T09:45:26.425Z,100
2023-03-19T09:51:37.087Z,100
2023-03-19T09:56:33.606Z,100
2023-03-19T10:01:30.163Z,100
2023-03-19T10:06:26.695Z,100
2023-03-19T10:12:37.367Z,100
2023-03-19T10:17:33.912Z,100
2023-03-19T10:22:30.432Z,100
2023-03-19T10:27:26.964Z,100
2023-03-19T10:33:37.633Z,100
2023-03-19T10:38:34.172Z,100
2023-03-19T10:43:30.691Z,100
2023-03-19T10:48:28.338Z,100
2023-03-19T10:54:37.904Z,100
2023-03-19T10:59:34.440Z,100
2023-03-19T11:04:30.965Z,100
2023-03-19T11:09:27.497Z,100
2023-03-19T11:15:38.143Z,100
2023-03-19T11:20:34.691Z,100
2023-03-19T11:25:31.189Z,100
2023-03-19T11:30:27.782Z,100
2023-03-19T11:36:38.516Z,100
2023-03-19T11:41:34.954Z,100
2023-03-19T11:46:31.526Z,100
2023-03-19T11:51:28.267Z,100
2023-03-19T11:56:24.558Z,100
2023-03-19T12:02:35.410Z,100
2023-03-19T12:07:31.781Z,100
2023-03-19T12:12:28.321Z,100
2023-03-19T12:17:24.848Z,93.4
2023-03-19T12:23:36.147Z,88.8
2023-03-19T12:28:32.190Z,70.4
2023-03-19T12:33:28.537Z,78.9
2023-03-19T12:38:25.097Z,86.9
2023-03-19T12:44:35.796Z,86
2023-03-19T12:49:32.282Z,93
2023-03-19T12:54:28.920Z,96.1
2023-03-19T12:59:25.458Z,100
2023-03-19T13:01:53.882Z,100
2023-03-19T13:05:36.029Z,100
2023-03-19T13:10:32.803Z,89.8
2023-03-19T13:15:29.167Z,84.5
2023-03-19T13:20:25.709Z,92.3
2023-03-19T13:26:36.272Z,100
2023-03-19T13:31:32.894Z,100
2023-03-19T13:36:29.400Z,100
2023-03-19T13:41:25.871Z,100
2023-03-19T13:47:36.557Z,100
2023-03-19T13:52:33.116Z,100
2023-03-19T13:57:29.779Z,100
2023-03-19T14:02:26.209Z,100
2023-03-19T14:08:36.807Z,100
2023-03-19T14:13:33.337Z,100
2023-03-19T14:18:30.016Z,100
2023-03-19T14:23:38.515Z,100
2023-03-19T14:29:37.086Z,100
2023-03-19T14:34:33.608Z,100
2023-03-19T14:39:30.185Z,100
2023-03-19T14:44:26.704Z,100
2023-03-19T14:50:39.675Z,100
2023-03-19T14:55:34.164Z,100
2023-03-19T15:00:30.402Z,100
2023-03-19T15:05:26.947Z,92.4
2023-03-19T15:11:37.603Z,66.8
2023-03-19T15:16:34.239Z,71.1
2023-03-19T15:21:30.662Z,76.1
2023-03-19T15:26:27.214Z,57.5
2023-03-19T15:33:04.525Z,59.7
2023-03-19T15:37:34.411Z,77.6
2023-03-19T15:42:30.959Z,57.4
2023-03-19T15:47:27.499Z,48.9
2023-03-19T15:52:24.045Z,63.8
2023-03-19T15:58:34.682Z,87.6
2023-03-19T16:03:31.284Z,100
2023-03-19T16:08:27.741Z,100
2023-03-19T16:14:38.410Z,100
2023-03-19T16:19:34.971Z,100
2023-03-19T16:24:31.453Z,100
2023-03-19T16:29:28.038Z,100
2023-03-19T16:35:38.839Z,100
2023-03-19T16:40:35.397Z,100
2023-03-19T16:45:31.740Z,100
2023-03-19T16:50:28.263Z,100
2023-03-19T16:55:24.865Z,100
2023-03-19T17:01:35.502Z,100
2023-03-19T17:11:28.548Z,100
2023-03-19T17:16:25.179Z,100
2023-03-19T17:22:35.734Z,100
2023-03-19T17:27:34.583Z,100
2023-03-19T17:32:28.791Z,100
2023-03-19T17:37:25.457Z,100
2023-03-19T17:43:36.007Z,100
2023-03-19T17:48:32.577Z,100
2023-03-19T17:53:29.060Z,100
2023-03-19T17:58:25.685Z,100
2023-03-19T18:04:36.342Z,100
2023-03-19T18:09:32.903Z,100
2023-03-19T18:14:29.336Z,100
2023-03-19T18:19:25.914Z,100
2023-03-19T18:25:36.539Z,100
2023-03-19T18:30:33.366Z,100
2023-03-19T18:35:29.650Z,100
2023-03-19T18:40:26.147Z,100
2023-03-19T18:46:36.817Z,100
2023-03-19T18:51:33.331Z,100
2023-03-19T18:56:29.959Z,100
2023-03-19T19:01:26.407Z,100
2023-03-19T19:07:37.056Z,100
2023-03-19T19:12:33.586Z,100
2023-03-19T19:17:30.170Z,100
2023-03-19T19:22:26.678Z,100
2023-03-19T19:28:40.014Z,100
2023-03-19T19:33:33.872Z,100
2023-03-19T19:38:30.424Z,100
2023-03-19T19:43:26.932Z,100
2023-03-19T19:49:37.596Z,100
2023-03-19T19:54:34.130Z,100
2023-03-19T19:59:30.727Z,100
2023-03-19T20:04:29.979Z,100
2023-03-19T20:10:37.862Z,100
2023-03-19T20:15:34.763Z,100
2023-03-19T20:20:30.937Z,100
2023-03-19T20:25:27.480Z,100
2023-03-19T20:31:38.131Z,100
2023-03-19T20:36:34.708Z,100
2023-03-19T20:41:31.162Z,100
2023-03-19T20:46:27.839Z,100
2023-03-19T20:52:38.426Z,100
2023-03-19T20:57:34.908Z,100
2023-03-19T21:02:31.507Z,100
2023-03-19T21:07:28.015Z,100
2023-03-19T21:13:38.682Z,100
2023-03-19T21:18:35.186Z,100
2023-03-19T21:23:31.886Z,100
2023-03-19T21:28:28.271Z,100
2023-03-19T21:33:24.791Z,100
2023-03-19T21:39:35.460Z,100
2023-03-19T21:49:28.720Z,100
2023-03-19T21:54:33.341Z,100
2023-03-19T21:59:29.888Z,100
2023-03-19T22:10:37.003Z,100
2023-03-19T22:15:33.972Z,100
2023-03-19T22:20:30.135Z,100
2023-03-19T22:25:26.567Z,100
2023-03-19T22:31:37.348Z,100
2023-03-19T22:36:33.783Z,100
2023-03-19T22:41:30.356Z,100
2023-03-19T22:46:26.942Z,100
2023-03-19T22:52:37.501Z,100
2023-03-19T22:57:34.033Z,100
2023-03-19T23:02:30.547Z,100
2023-03-19T23:07:27.110Z,100
2023-03-19T23:13:38.058Z,100
2023-03-19T23:18:34.297Z,100
2023-03-19T23:23:30.815Z,100
2023-03-19T23:28:27.367Z,100
2023-03-19T23:34:53.981Z,100
2023-03-19T23:39:34.565Z,100
2023-03-19T23:44:31.070Z,100
2023-03-19T23:49:27.667Z,100
2023-03-19T23:55:38.316Z,100
